createdAt,value
2022-09-07T00:00:19.702Z,20.73
2022-09-07T00:05:24.435Z,19.70
2022-09-07T00:10:31.115Z,20.65
2022-09-07T00:15:36.678Z,20.23
2022-09-07T00:20:43.985Z,20.70
2022-09-07T00:25:53.891Z,20.55
2022-09-07T00:30:58.531Z,20.10
2022-09-07T00:36:04.696Z,20.55
2022-09-07T00:41:12.689Z,21.45
2022-09-07T00:46:20.624Z,20.08
2022-09-07T00:51:31.628Z,20.63
2022-09-07T00:56:40.440Z,20.17
2022-09-07T01:01:46.087Z,20.50
2022-09-07T01:06:52.724Z,21.70
2022-09-07T01:12:01.433Z,22.05
2022-09-07T01:17:13.968Z,21.10
2022-09-07T01:22:46.708Z,21.40
2022-09-07T01:28:23.388Z,19.92
2022-09-07T01:33:53.658Z,21.23
2022-09-07T01:39:03.622Z,20.58
2022-09-07T01:44:14.118Z,19.98
2022-09-07T01:49:22.175Z,21.23
2022-09-07T01:54:31.387Z,20.52
2022-09-07T01:59:40.410Z,20.38
2022-09-07T02:04:49.940Z,19.65
2022-09-07T02:10:00.834Z,19.92
2022-09-07T02:15:16.009Z,19.98
2022-09-07T02:20:25.266Z,18.63
2022-09-07T02:25:36.397Z,20.90
2022-09-07T02:30:46.916Z,20.70
2022-09-07T02:36:01.182Z,19.35
2022-09-07T02:41:06.159Z,19.65
2022-09-07T02:46:28.390Z,19.75
2022-09-07T02:51:40.953Z,19.92
2022-09-07T02:56:56.342Z,19.60
2022-09-07T03:02:06.198Z,20.20
2022-09-07T03:07:14.327Z,19.63
2022-09-07T03:12:18.587Z,20.38
2022-09-07T03:17:25.587Z,19.52
2022-09-07T03:22:33.209Z,20.90
2022-09-07T03:27:38.483Z,21.25
2022-09-07T03:32:49.968Z,20.67
2022-09-07T03:37:57.557Z,19.98
2022-09-07T03:43:01.818Z,18.98
2022-09-07T03:48:07.658Z,20.65
2022-09-07T03:53:11.191Z,19.30
2022-09-07T03:58:15.037Z,19.33
2022-09-07T04:03:20.397Z,19.58
2022-09-07T04:08:29.283Z,20.25
2022-09-07T04:13:35.308Z,19.92
2022-09-07T04:18:42.279Z,20.17
2022-09-07T04:23:47.971Z,19.77
2022-09-07T04:28:55.144Z,19.00
2022-09-07T04:34:03.357Z,19.60
2022-09-07T04:39:07.603Z,18.75
2022-09-07T04:44:16.597Z,18.38
2022-09-07T04:49:23.148Z,18.80
2022-09-07T04:54:26.602Z,18.45
2022-09-07T04:59:30.899Z,18.17
2022-09-07T05:04:41.171Z,19.00
2022-09-07T05:09:44.420Z,16.85
2022-09-07T05:14:48.010Z,19.58
2022-09-07T05:19:55.181Z,16.85
2022-09-07T05:24:58.438Z,17.45
2022-09-07T05:30:03.781Z,17.70
2022-09-07T05:35:12.269Z,16.90
2022-09-07T05:40:15.812Z,17.40
2022-09-07T05:45:19.601Z,16.05
2022-09-07T05:50:24.790Z,15.95
2022-09-07T05:55:30.339Z,15.77
2022-09-07T06:00:34.444Z,15.65
2022-09-07T06:05:40.280Z,13.90
2022-09-07T06:10:44.422Z,13.60
2022-09-07T06:15:49.143Z,12.52
2022-09-07T06:20:57.418Z,12.13
2022-09-07T06:26:02.212Z,11.05
2022-09-07T06:31:08.577Z,12.30
2022-09-07T06:36:17.090Z,10.00
2022-09-07T06:52:11.491Z,9.68
2022-09-07T06:57:15.611Z,8.57
2022-09-07T07:02:18.940Z,9.13
2022-09-07T07:07:25.934Z,7.40
2022-09-07T07:17:42.186Z,6.25
2022-09-07T07:22:51.451Z,5.75
2022-09-07T07:27:56.019Z,5.68
2022-09-07T07:33:02.202Z,3.95
2022-09-07T07:43:36.569Z,3.60
2022-09-07T07:48:42.866Z,3.60
2022-09-07T07:53:48.691Z,3.25
2022-09-07T07:58:53.760Z,2.92
2022-09-07T08:03:58.529Z,3.25
2022-09-07T08:09:03.266Z,3.10
2022-09-07T08:14:09.208Z,3.33
2022-09-07T08:19:19.715Z,3.30
2022-09-07T08:24:25.061Z,3.10
2022-09-07T08:29:33.494Z,3.15
2022-09-07T08:34:43.250Z,2.97
2022-09-07T08:39:48.430Z,2.95
2022-09-07T08:44:57.360Z,3.25
2022-09-07T08:50:07.107Z,3.33
2022-09-07T08:55:17.662Z,2.65
2022-09-07T09:00:25.319Z,2.72
2022-09-07T09:05:38.023Z,3.05
2022-09-07T09:10:52.497Z,3.13
2022-09-07T09:16:05.769Z,3.33
2022-09-07T09:21:17.457Z,3.10
2022-09-07T09:26:26.251Z,3.20
2022-09-07T09:31:34.614Z,2.75
2022-09-07T09:36:44.264Z,3.42
2022-09-07T09:41:50.223Z,3.38
2022-09-07T09:52:33.639Z,3.53
2022-09-07T10:09:00.452Z,3.88
2022-09-07T10:14:05.638Z,3.40
2022-09-07T10:19:26.677Z,3.17
2022-09-07T10:24:36.902Z,3.30
2022-09-07T10:29:55.986Z,3.17
2022-09-07T10:35:12.602Z,3.22
2022-09-07T10:40:30.362Z,3.25
2022-09-07T10:45:46.574Z,3.58
2022-09-07T10:50:55.142Z,3.40
2022-09-07T10:56:09.096Z,3.33
2022-09-07T11:01:22.619Z,3.28
2022-09-07T11:06:34.820Z,3.20
2022-09-07T11:17:15.880Z,3.45
2022-09-07T11:22:32.036Z,2.95
2022-09-07T11:27:41.463Z,3.17
2022-09-07T11:32:55.884Z,2.80
2022-09-07T11:38:06.805Z,3.20
2022-09-07T11:43:17.894Z,3.33
2022-09-07T11:48:30.361Z,2.90
2022-09-07T11:53:37.429Z,3.42
2022-09-07T11:59:21.019Z,3.53
2022-09-07T12:04:51.716Z,3.60
2022-09-07T12:10:13.143Z,3.30
2022-09-07T12:15:29.033Z,3.10
2022-09-07T12:20:43.323Z,3.00
2022-09-07T12:25:48.826Z,2.50
2022-09-07T12:31:00.865Z,2.50
2022-09-07T12:36:46.389Z,2.20
2022-09-07T12:47:31.674Z,2.85
2022-09-07T12:53:23.207Z,2.90
2022-09-07T12:58:42.102Z,2.70
2022-09-07T13:04:14.095Z,2.88
2022-09-07T13:09:40.111Z,2.92
2022-09-07T13:14:44.242Z,2.63
2022-09-07T13:20:23.782Z,2.42
2022-09-07T13:25:50.320Z,2.50
2022-09-07T13:31:08.390Z,2.70
2022-09-07T13:36:28.507Z,2.28
2022-09-07T13:41:40.872Z,3.00
2022-09-07T13:46:55.941Z,2.35
2022-09-07T13:52:08.724Z,2.40
2022-09-07T13:57:24.814Z,2.40
2022-09-07T14:02:30.664Z,2.30
2022-09-07T14:07:35.446Z,2.65
2022-09-07T14:12:50.010Z,3.08
2022-09-07T14:18:05.248Z,2.72
2022-09-07T14:23:14.437Z,2.47
2022-09-07T14:28:39.982Z,2.42
2022-09-07T14:33:53.046Z,2.47
2022-09-07T14:39:06.775Z,3.10
2022-09-07T14:44:32.673Z,2.83
2022-09-07T14:49:38.195Z,2.40
2022-09-07T14:54:41.448Z,2.33
2022-09-07T14:59:48.506Z,2.53
2022-09-07T15:05:18.079Z,2.63
2022-09-07T15:11:32.499Z,2.30
2022-09-07T15:16:13.229Z,2.38
2022-09-07T15:21:20.522Z,2.50
2022-09-07T15:32:03.325Z,2.28
2022-09-07T15:47:58.951Z,2.60
2022-09-07T15:53:03.346Z,2.30
2022-09-07T15:58:11.687Z,2.40
2022-09-07T16:03:17.058Z,3.60
2022-09-07T16:08:32.705Z,2.60
2022-09-07T16:13:36.402Z,2.50
2022-09-07T16:18:46.968Z,2.28
2022-09-07T16:23:52.775Z,2.83
2022-09-07T16:28:56.216Z,2.25
2022-09-07T16:34:03.014Z,2.20
2022-09-07T16:39:08.144Z,2.28
2022-09-07T16:44:14.083Z,2.80
2022-09-07T16:49:19.731Z,4.07
2022-09-07T16:54:23.658Z,2.10
2022-09-07T16:59:27.480Z,2.47
2022-09-07T17:04:33.548Z,1.80
2022-09-07T17:09:38.202Z,2.30
2022-09-07T17:14:41.689Z,2.30
2022-09-07T17:19:46.443Z,2.35
2022-09-07T17:24:50.972Z,2.28
2022-09-07T17:29:54.563Z,2.20
2022-09-07T17:35:00.880Z,3.10
2022-09-07T17:40:06.880Z,2.70
2022-09-07T17:45:12.526Z,2.53
2022-09-07T17:50:19.102Z,2.50
2022-09-07T17:55:23.333Z,4.35
2022-09-07T18:00:27.709Z,3.20
2022-09-07T18:05:34.980Z,2.85
2022-09-07T18:16:03.161Z,2.72
2022-09-07T18:21:16.042Z,2.72
2022-09-07T18:26:21.888Z,4.55
2022-09-07T18:31:28.442Z,3.25
2022-09-07T18:36:34.837Z,3.88
2022-09-07T18:41:41.006Z,3.00
2022-09-07T18:46:45.528Z,3.08
2022-09-07T18:57:15.454Z,2.92
2022-09-07T19:02:23.410Z,3.20
2022-09-07T19:07:30.154Z,2.78
2022-09-07T19:12:34.741Z,3.55
2022-09-07T19:17:40.147Z,3.25
2022-09-07T19:22:48.236Z,3.53
2022-09-07T19:27:54.533Z,3.20
2022-09-07T19:33:04.199Z,3.05
2022-09-07T19:38:12.014Z,2.58
2022-09-07T19:43:15.686Z,2.83
2022-09-07T19:48:21.966Z,2.08
2022-09-07T19:53:31.797Z,2.53
2022-09-07T19:58:37.295Z,2.00
2022-09-07T20:03:44.183Z,1.83
2022-09-07T20:08:49.310Z,1.80
2022-09-07T20:13:57.385Z,1.63
2022-09-07T20:19:01.158Z,1.70
2022-09-07T20:24:07.388Z,2.15
2022-09-07T20:29:29.227Z,2.00
2022-09-07T20:34:34.573Z,2.35
2022-09-07T20:39:40.180Z,2.55
2022-09-07T20:44:44.005Z,2.65
2022-09-07T20:49:52.306Z,2.85
2022-09-07T20:54:57.349Z,3.00
2022-09-07T21:00:03.744Z,3.28
2022-09-07T21:05:14.939Z,3.13
2022-09-07T21:10:25.714Z,3.78
2022-09-07T21:15:31.891Z,3.10
2022-09-07T21:20:37.494Z,3.83
2022-09-07T21:25:48.667Z,3.72
2022-09-07T21:31:01.271Z,4.07
2022-09-07T21:36:07.265Z,3.50
2022-09-07T21:41:17.329Z,3.83
2022-09-07T21:46:31.174Z,3.83
2022-09-07T21:51:36.278Z,4.05
2022-09-07T21:56:46.644Z,3.75
2022-09-07T22:01:56.325Z,4.28
2022-09-07T22:07:00.815Z,4.78
2022-09-07T22:12:10.127Z,4.40
2022-09-07T22:17:16.961Z,4.40
2022-09-07T22:22:21.839Z,3.70
2022-09-07T22:27:27.138Z,4.30
2022-09-07T22:32:30.684Z,4.10
2022-09-07T22:37:36.720Z,4.30
2022-09-07T22:42:41.577Z,4.00
2022-09-07T22:47:45.060Z,4.13
2022-09-07T22:52:49.056Z,4.03
2022-09-07T22:57:55.756Z,3.40
2022-09-07T23:02:58.817Z,3.20
2022-09-07T23:08:04.854Z,3.70
2022-09-07T23:13:15.010Z,3.13
2022-09-07T23:18:22.746Z,2.88
2022-09-07T23:23:28.592Z,3.00
2022-09-07T23:28:33.648Z,2.90
2022-09-07T23:33:38.027Z,2.88
2022-09-07T23:38:41.481Z,3.75
2022-09-07T23:43:48.435Z,3.20
2022-09-07T23:48:52.409Z,3.33
2022-09-07T23:53:56.958Z,3.35
2022-09-07T23:59:01.804Z,3.50
